createdAt,value
2022-09-28T00:00:42.643Z,32.55
2022-09-28T00:03:09.600Z,32.20
2022-09-28T00:05:36.337Z,31.73
2022-09-28T00:08:03.139Z,32.03
2022-09-28T00:10:29.959Z,31.20
2022-09-28T00:12:56.745Z,31.20
2022-09-28T00:15:24.783Z,30.02
2022-09-28T00:17:51.520Z,28.92
2022-09-28T00:20:19.442Z,29.60
2022-09-28T00:22:46.293Z,30.05
2022-09-28T00:25:13.067Z,30.30
2022-09-28T00:27:40.287Z,29.20
2022-09-28T00:30:07.931Z,31.67
2022-09-28T00:32:34.753Z,31.48
2022-09-28T00:35:01.538Z,30.90
2022-09-28T00:37:28.254Z,31.15
2022-09-28T00:39:54.993Z,30.95
2022-09-28T00:42:24.891Z,29.98
2022-09-28T00:44:56.210Z,29.65
2022-09-28T00:47:41.927Z,30.08
2022-09-28T00:50:13.059Z,28.92
2022-09-28T00:52:45.986Z,29.75
2022-09-28T00:55:21.724Z,29.50
2022-09-28T00:57:53.738Z,30.20
2022-09-28T01:00:20.771Z,30.55
2022-09-28T01:02:48.382Z,30.13
2022-09-28T01:05:18.365Z,28.45
2022-09-28T01:07:46.910Z,30.20
2022-09-28T01:10:14.316Z,28.52
2022-09-28T01:12:41.167Z,28.95
2022-09-28T01:15:08.478Z,30.63
2022-09-28T01:17:58.393Z,28.00
2022-09-28T01:20:39.937Z,28.25
2022-09-28T01:23:37.572Z,28.13
2022-09-28T01:26:44.015Z,28.23
2022-09-28T01:29:17.042Z,28.20
2022-09-28T01:31:49.804Z,30.20
2022-09-28T01:36:50.735Z,28.73
2022-09-28T01:39:27.788Z,28.63
2022-09-28T01:42:01.201Z,28.20
2022-09-28T01:44:31.435Z,28.75
2022-09-28T01:47:04.266Z,27.77
2022-09-28T01:49:42.839Z,29.05
2022-09-28T01:52:27.973Z,29.73
2022-09-28T01:55:01.482Z,28.73
2022-09-28T01:57:39.440Z,28.35
2022-09-28T02:00:08.637Z,28.73
2022-09-28T02:03:06.852Z,26.95
2022-09-28T02:05:49.698Z,26.85
2022-09-28T02:08:29.029Z,27.05
2022-09-28T02:11:06.054Z,28.70
2022-09-28T02:13:53.776Z,29.20
2022-09-28T02:16:30.030Z,29.05
2022-09-28T02:18:57.462Z,28.00
2022-09-28T02:21:29.752Z,28.42
2022-09-28T02:24:01.540Z,28.48
2022-09-28T02:26:35.586Z,26.90
2022-09-28T02:29:02.414Z,28.08
2022-09-28T02:31:29.255Z,27.98
2022-09-28T02:33:57.574Z,28.02
2022-09-28T02:36:26.715Z,26.40
2022-09-28T02:38:53.826Z,26.27
2022-09-28T02:41:26.369Z,26.55
2022-09-28T02:44:16.408Z,27.35
2022-09-28T02:46:55.761Z,28.45
2022-09-28T02:50:09.638Z,26.45
2022-09-28T02:53:03.839Z,25.30
2022-09-28T02:55:40.516Z,24.42
2022-09-28T02:58:25.693Z,25.90
2022-09-28T03:01:02.637Z,24.33
2022-09-28T03:03:50.621Z,24.08
2022-09-28T03:06:30.864Z,24.67
2022-09-28T03:09:04.755Z,25.10
2022-09-28T03:11:39.737Z,23.95
2022-09-28T03:16:46.369Z,22.85
2022-09-28T03:19:14.408Z,24.08
2022-09-28T03:21:41.404Z,23.77
2022-09-28T03:24:10.615Z,24.23
2022-09-28T03:26:38.980Z,24.48
2022-09-28T03:29:06.646Z,23.38
2022-09-28T03:31:35.217Z,23.67
2022-09-28T03:34:02.434Z,22.83
2022-09-28T03:36:29.363Z,23.83
2022-09-28T03:38:56.429Z,23.00
2022-09-28T03:41:25.030Z,23.85
2022-09-28T03:43:51.789Z,24.00
2022-09-28T03:46:18.809Z,22.67
2022-09-28T03:48:49.725Z,24.35
2022-09-28T03:51:16.485Z,24.88
2022-09-28T03:53:43.375Z,31.45
2022-09-28T03:56:13.842Z,26.58
2022-09-28T03:58:42.327Z,26.02
2022-09-28T04:01:16.935Z,25.13
2022-09-28T04:03:46.235Z,23.27
2022-09-28T04:06:14.029Z,29.17
2022-09-28T04:08:40.957Z,30.27
2022-09-28T04:11:08.577Z,25.30
2022-09-28T04:13:35.494Z,24.55
2022-09-28T04:16:02.460Z,25.15
2022-09-28T04:18:33.435Z,25.80
2022-09-28T04:21:23.357Z,23.92
2022-09-28T04:23:55.856Z,24.23
2022-09-28T04:26:25.106Z,24.00
2022-09-28T04:29:10.650Z,23.23
2022-09-28T04:31:53.509Z,21.90
2022-09-28T04:34:23.623Z,23.17
2022-09-28T04:36:51.186Z,22.40
2022-09-28T04:39:21.603Z,22.05
2022-09-28T04:41:51.555Z,22.65
2022-09-28T04:44:18.838Z,24.77
2022-09-28T04:46:47.266Z,23.50
2022-09-28T04:49:29.529Z,22.92
2022-09-28T04:52:06.938Z,23.52
2022-09-28T04:54:34.788Z,23.33
2022-09-28T04:57:03.380Z,22.42
2022-09-28T04:59:30.300Z,23.40
2022-09-28T05:01:57.351Z,22.90
2022-09-28T05:04:39.386Z,22.65
2022-09-28T05:07:20.233Z,24.70
2022-09-28T05:09:46.991Z,24.13
2022-09-28T05:12:15.086Z,23.08
2022-09-28T05:14:42.103Z,23.65
2022-09-28T05:17:10.294Z,22.98
2022-09-28T05:19:57.432Z,22.30
2022-09-28T05:22:24.264Z,20.80
2022-09-28T05:24:51.809Z,20.40
2022-09-28T05:27:18.551Z,20.63
2022-09-28T05:29:52.437Z,19.85
2022-09-28T05:32:44.375Z,18.45
2022-09-28T05:35:18.839Z,19.10
2022-09-28T05:37:47.531Z,17.88
2022-09-28T05:40:14.791Z,18.15
2022-09-28T05:42:42.248Z,18.23
2022-09-28T05:45:10.209Z,17.38
2022-09-28T05:47:43.751Z,16.70
2022-09-28T05:50:11.991Z,17.40
2022-09-28T05:52:39.615Z,16.30
2022-09-28T05:55:08.027Z,16.10
2022-09-28T05:57:35.045Z,16.65
2022-09-28T06:00:06.024Z,15.57
2022-09-28T06:02:39.303Z,15.93
2022-09-28T06:05:08.695Z,15.32
2022-09-28T06:07:35.638Z,16.35
2022-09-28T06:10:02.906Z,15.38
2022-09-28T06:12:39.860Z,16.45
2022-09-28T06:15:12.338Z,15.00
2022-09-28T06:17:39.812Z,14.95
2022-09-28T06:20:26.900Z,15.40
2022-09-28T06:23:07.901Z,15.68
2022-09-28T06:25:34.761Z,15.73
2022-09-28T06:28:05.083Z,16.52
2022-09-28T06:30:34.688Z,16.13
2022-09-28T06:33:02.578Z,14.65
2022-09-28T06:35:30.979Z,17.60
2022-09-28T06:37:59.952Z,15.77
2022-09-28T06:40:28.086Z,15.65
2022-09-28T06:43:00.383Z,14.95
2022-09-28T06:45:52.326Z,15.93
2022-09-28T06:48:42.941Z,16.60
2022-09-28T06:51:12.670Z,16.13
2022-09-28T06:53:53.963Z,16.55
2022-09-28T06:56:41.017Z,17.15
2022-09-28T06:59:07.775Z,17.08
2022-09-28T07:01:36.291Z,16.48
2022-09-28T07:04:42.038Z,17.17
2022-09-28T07:07:31.875Z,17.45
2022-09-28T07:10:11.423Z,16.75
2022-09-28T07:12:44.376Z,17.00
2022-09-28T07:15:32.539Z,17.75
2022-09-28T07:18:03.558Z,16.45
2022-09-28T07:20:38.720Z,17.38
2022-09-28T07:23:19.228Z,17.00
2022-09-28T07:26:25.691Z,17.20
2022-09-28T07:29:18.922Z,15.40
2022-09-28T07:32:17.656Z,16.20
2022-09-28T07:34:58.919Z,16.27
2022-09-28T07:38:00.588Z,15.93
2022-09-28T07:40:48.450Z,16.40
2022-09-28T07:43:20.778Z,16.88
2022-09-28T07:45:52.600Z,17.05
2022-09-28T07:48:20.144Z,17.00
2022-09-28T07:51:25.331Z,17.92
2022-09-28T07:54:10.775Z,18.05
2022-09-28T07:56:44.307Z,16.65
2022-09-28T07:59:26.982Z,16.13
2022-09-28T08:02:20.571Z,16.77
2022-09-28T08:04:48.621Z,17.30
2022-09-28T08:07:20.480Z,15.98
2022-09-28T08:09:55.376Z,17.52
2022-09-28T08:12:27.723Z,18.35
2022-09-28T08:15:13.475Z,16.67
2022-09-28T08:17:59.089Z,17.73
2022-09-28T08:20:51.325Z,17.30
2022-09-28T08:23:19.810Z,16.80
2022-09-28T08:25:52.646Z,15.55
2022-09-28T08:28:20.222Z,17.00
2022-09-28T08:30:49.108Z,16.58
2022-09-28T08:33:42.203Z,17.15
2022-09-28T08:36:28.467Z,16.95
2022-09-28T08:39:01.307Z,17.20
2022-09-28T08:41:37.002Z,17.30
2022-09-28T08:44:26.896Z,16.40
2022-09-28T08:47:59.534Z,15.38
2022-09-28T08:50:49.489Z,15.30
2022-09-28T08:53:27.398Z,14.57
2022-09-28T08:56:37.992Z,13.32
2022-09-28T08:59:12.716Z,13.90
2022-09-28T09:02:03.566Z,14.63
2022-09-28T09:04:33.689Z,15.52
2022-09-28T09:07:58.358Z,15.05
2022-09-28T09:10:42.688Z,14.77
2022-09-28T09:13:37.251Z,14.55
2022-09-28T09:16:19.890Z,16.45
2022-09-28T09:19:20.413Z,14.40
2022-09-28T09:22:17.949Z,13.73
2022-09-28T09:24:54.809Z,16.13
2022-09-28T09:27:37.661Z,14.68
2022-09-28T09:32:53.473Z,15.47
2022-09-28T09:35:38.854Z,15.73
2022-09-28T09:38:55.967Z,15.15
2022-09-28T09:41:57.446Z,14.75
2022-09-28T09:45:17.133Z,14.75
2022-09-28T09:48:14.432Z,13.00
2022-09-28T09:51:23.821Z,13.60
2022-09-28T09:54:04.566Z,12.65
2022-09-28T09:56:37.199Z,13.80
2022-09-28T09:59:24.508Z,12.98
2022-09-28T10:02:28.608Z,13.63
2022-09-28T10:05:24.216Z,12.75
2022-09-28T10:08:03.204Z,13.30
2022-09-28T10:10:35.430Z,13.95
2022-09-28T10:13:21.071Z,12.85
2022-09-28T10:15:50.530Z,12.23
2022-09-28T10:18:28.848Z,13.10
2022-09-28T10:21:15.824Z,13.02
2022-09-28T10:23:55.250Z,12.20
2022-09-28T10:26:37.487Z,12.32
2022-09-28T10:29:14.743Z,11.00
2022-09-28T10:31:51.543Z,10.90
2022-09-28T10:34:38.519Z,12.70
2022-09-28T10:37:15.350Z,12.05
2022-09-28T10:40:05.808Z,9.95
2022-09-28T10:42:36.243Z,11.13
2022-09-28T10:45:18.832Z,10.70
2022-09-28T10:47:46.423Z,9.73
2022-09-28T10:50:24.596Z,9.02
2022-09-28T10:53:19.938Z,9.93
2022-09-28T10:56:20.192Z,8.88
2022-09-28T10:58:48.980Z,9.55
2022-09-28T11:01:31.076Z,9.93
2022-09-28T11:04:01.218Z,9.52
2022-09-28T11:06:36.194Z,9.30
2022-09-28T11:09:21.074Z,10.02
2022-09-28T11:11:48.204Z,10.00
2022-09-28T11:14:43.624Z,10.63
2022-09-28T11:17:17.281Z,10.13
2022-09-28T11:19:45.883Z,10.60
2022-09-28T11:22:29.191Z,11.07
2022-09-28T11:25:33.265Z,11.48
2022-09-28T11:28:04.617Z,10.85
2022-09-28T11:30:54.277Z,10.80
2022-09-28T11:33:36.749Z,12.27
2022-09-28T11:36:45.375Z,12.38
2022-09-28T11:39:37.350Z,12.07
2022-09-28T11:42:16.732Z,11.90
2022-09-28T11:44:47.082Z,11.55
2022-09-28T11:47:21.036Z,11.95
2022-09-28T11:49:57.503Z,11.60
2022-09-28T11:52:27.709Z,12.15
2022-09-28T11:55:02.425Z,11.00
2022-09-28T11:57:36.590Z,11.27
2022-09-28T12:00:20.822Z,12.02
2022-09-28T12:03:07.246Z,12.95
2022-09-28T12:05:40.491Z,12.15
2022-09-28T12:08:28.991Z,14.13
2022-09-28T12:11:11.107Z,14.75
2022-09-28T12:14:00.900Z,15.73
2022-09-28T12:17:05.890Z,15.63
2022-09-28T12:19:44.338Z,15.55
2022-09-28T12:22:21.055Z,17.15
2022-09-28T12:24:52.749Z,17.25
2022-09-28T12:27:28.436Z,15.73
2022-09-28T12:29:55.253Z,15.50
2022-09-28T12:32:28.669Z,18.67
2022-09-28T12:34:56.827Z,17.35
2022-09-28T12:37:40.338Z,17.08
2022-09-28T12:40:22.630Z,17.10
2022-09-28T12:43:17.698Z,18.05
2022-09-28T12:46:11.418Z,19.15
2022-09-28T12:48:58.416Z,18.67
2022-09-28T12:51:54.548Z,18.08
2022-09-28T12:54:42.993Z,17.42
2022-09-28T12:57:34.689Z,18.13
2022-09-28T13:00:26.092Z,18.35
2022-09-28T13:03:31.714Z,18.05
2022-09-28T13:06:07.770Z,14.52
2022-09-28T13:08:55.267Z,17.48
2022-09-28T13:11:22.092Z,18.17
2022-09-28T13:14:13.505Z,18.50
2022-09-28T13:17:03.180Z,19.33
2022-09-28T13:19:36.279Z,15.98
2022-09-28T13:22:24.561Z,19.60
2022-09-28T13:24:55.391Z,18.52
2022-09-28T13:27:46.208Z,19.55
2022-09-28T13:30:15.034Z,18.80
2022-09-28T13:32:44.180Z,19.90
2022-09-28T13:35:21.734Z,18.80
2022-09-28T13:38:17.687Z,17.02
2022-09-28T13:41:06.338Z,18.13
2022-09-28T13:44:00.742Z,19.23
2022-09-28T13:46:40.436Z,18.00
2022-09-28T13:49:49.350Z,14.70
2022-09-28T13:52:54.881Z,15.65
2022-09-28T13:55:24.992Z,18.40
2022-09-28T13:58:00.794Z,18.20
2022-09-28T14:00:47.072Z,17.67
2022-09-28T14:03:27.192Z,18.95
2022-09-28T14:06:00.787Z,18.80
2022-09-28T14:08:58.272Z,18.38
2022-09-28T14:11:42.594Z,19.08
2022-09-28T14:14:13.810Z,18.33
2022-09-28T14:16:44.378Z,19.85
2022-09-28T14:19:14.234Z,19.77
2022-09-28T14:21:56.104Z,18.92
2022-09-28T14:24:45.156Z,18.80
2022-09-28T14:27:23.990Z,19.27
2022-09-28T14:30:05.301Z,20.50
2022-09-28T14:32:37.077Z,19.83
2022-09-28T14:35:07.494Z,19.30
2022-09-28T14:37:56.435Z,19.05
2022-09-28T14:40:49.745Z,17.25
2022-09-28T14:43:35.038Z,17.45
2022-09-28T14:46:11.354Z,19.38
2022-09-28T14:48:57.219Z,15.63
2022-09-28T14:51:26.774Z,15.20
2022-09-28T14:53:56.543Z,17.85
2022-09-28T14:56:25.466Z,19.92
2022-09-28T14:58:58.153Z,19.23
2022-09-28T15:01:26.120Z,20.02
2022-09-28T15:03:56.135Z,20.98
2022-09-28T15:06:24.259Z,22.13
2022-09-28T15:08:51.294Z,23.02
2022-09-28T15:11:27.441Z,21.33
2022-09-28T15:14:06.423Z,21.70
2022-09-28T15:16:33.796Z,22.10
2022-09-28T15:19:10.467Z,20.98
2022-09-28T15:21:40.542Z,23.60
2022-09-28T15:24:28.880Z,19.08
2022-09-28T15:26:56.895Z,21.02
2022-09-28T15:29:25.843Z,19.90
2022-09-28T15:31:54.662Z,19.55
2022-09-28T15:34:46.137Z,24.23
2022-09-28T15:37:16.714Z,21.58
2022-09-28T15:39:44.565Z,22.95
2022-09-28T15:42:11.506Z,25.55
2022-09-28T15:44:39.655Z,23.92
2022-09-28T15:47:16.779Z,25.65
2022-09-28T15:49:53.259Z,25.23
2022-09-28T15:52:26.251Z,23.95
2022-09-28T15:54:54.193Z,25.52
2022-09-28T15:57:29.947Z,24.45
2022-09-28T15:59:59.353Z,23.33
2022-09-28T16:02:27.284Z,22.17
2022-09-28T16:05:00.803Z,23.58
2022-09-28T16:07:56.786Z,25.52
2022-09-28T16:10:35.119Z,13.80
2022-09-28T16:13:23.269Z,11.35
2022-09-28T16:16:00.307Z,6.07
2022-09-28T16:18:29.822Z,4.78
2022-09-28T16:21:24.656Z,5.22
2022-09-28T16:23:55.702Z,4.72
2022-09-28T16:26:33.078Z,5.15
2022-09-28T16:29:00.754Z,4.68
2022-09-28T16:31:33.815Z,4.88
2022-09-28T16:34:09.579Z,4.32
2022-09-28T16:36:46.194Z,4.07
2022-09-28T16:39:16.978Z,4.20
2022-09-28T16:41:48.352Z,4.53
2022-09-28T16:44:21.305Z,5.07
2022-09-28T16:46:48.205Z,4.80
2022-09-28T16:49:20.146Z,4.85
2022-09-28T16:51:47.887Z,5.10
2022-09-28T16:54:37.103Z,4.90
2022-09-28T16:57:06.106Z,4.97
2022-09-28T16:59:32.971Z,5.05
2022-09-28T17:01:59.845Z,5.38
2022-09-28T17:04:27.155Z,4.75
2022-09-28T17:06:55.640Z,5.10
2022-09-28T17:09:23.368Z,4.38
2022-09-28T17:11:56.739Z,4.88
2022-09-28T17:14:24.300Z,5.47
2022-09-28T17:17:13.756Z,4.10
2022-09-28T17:19:40.919Z,5.18
2022-09-28T17:22:09.267Z,5.38
2022-09-28T17:24:36.574Z,4.90
2022-09-28T17:27:03.883Z,5.38
2022-09-28T17:29:30.650Z,4.97
2022-09-28T17:31:57.447Z,5.97
2022-09-28T17:34:24.322Z,5.22
2022-09-28T17:36:51.995Z,5.50
2022-09-28T17:39:19.356Z,5.05
2022-09-28T17:41:46.262Z,5.13
2022-09-28T17:44:16.254Z,4.97
2022-09-28T17:46:46.364Z,5.50
2022-09-28T17:49:14.006Z,5.38
2022-09-28T17:51:40.887Z,4.93
2022-09-28T17:54:08.894Z,5.50
2022-09-28T17:56:36.794Z,4.68
2022-09-28T17:59:10.367Z,5.10
2022-09-28T18:01:39.371Z,4.88
2022-09-28T18:04:08.982Z,5.22
2022-09-28T18:06:37.401Z,5.43
2022-09-28T18:09:05.835Z,5.72
2022-09-28T18:11:33.862Z,5.82
2022-09-28T18:14:00.881Z,6.07
2022-09-28T18:16:28.937Z,5.72
2022-09-28T18:18:56.790Z,6.32
2022-09-28T18:21:23.887Z,6.82
2022-09-28T18:23:50.651Z,6.45
2022-09-28T18:26:19.867Z,6.18
2022-09-28T18:28:47.303Z,6.80
2022-09-28T18:31:15.894Z,6.85
2022-09-28T18:33:50.371Z,7.78
2022-09-28T18:36:17.346Z,7.47
2022-09-28T18:38:44.262Z,7.40
2022-09-28T18:41:15.740Z,7.93
2022-09-28T18:43:51.349Z,8.05
2022-09-28T18:46:18.504Z,8.05
2022-09-28T18:48:47.505Z,8.15
2022-09-28T18:51:14.561Z,8.32
2022-09-28T18:53:41.354Z,8.43
2022-09-28T18:56:11.017Z,7.82
2022-09-28T18:58:39.240Z,8.45
2022-09-28T19:04:00.572Z,8.50
2022-09-28T19:06:27.817Z,8.95
2022-09-28T19:08:57.830Z,9.13
2022-09-28T19:11:25.600Z,9.45
2022-09-28T19:13:54.448Z,10.15
2022-09-28T19:16:24.211Z,11.43
2022-09-28T19:18:53.711Z,10.45
2022-09-28T19:21:21.087Z,10.43
2022-09-28T19:23:53.652Z,11.73
2022-09-28T19:26:23.129Z,10.65
2022-09-28T19:28:50.524Z,11.00
2022-09-28T19:31:17.484Z,11.88
2022-09-28T19:33:48.165Z,11.27
2022-09-28T19:36:18.522Z,10.13
2022-09-28T19:38:45.959Z,9.43
2022-09-28T19:41:39.299Z,11.40
2022-09-28T19:44:10.447Z,12.05
2022-09-28T19:46:39.038Z,11.30
2022-09-28T19:49:11.419Z,11.30
2022-09-28T19:51:51.446Z,11.05
2022-09-28T19:54:33.124Z,10.65
2022-09-28T19:57:07.831Z,10.63
2022-09-28T19:59:36.722Z,11.60
2022-09-28T20:02:05.614Z,11.43
2022-09-28T20:04:32.377Z,11.75
2022-09-28T20:06:59.097Z,11.77
2022-09-28T20:09:25.892Z,11.85
2022-09-28T20:11:53.161Z,11.73
2022-09-28T20:14:21.445Z,11.07
2022-09-28T20:16:50.231Z,11.88
2022-09-28T20:19:19.111Z,14.27
2022-09-28T20:21:48.120Z,9.45
2022-09-28T20:24:16.779Z,10.45
2022-09-28T20:26:44.674Z,10.63
2022-09-28T20:29:11.898Z,11.98
2022-09-28T20:31:38.743Z,17.25
2022-09-28T20:34:06.513Z,12.48
2022-09-28T20:36:33.626Z,11.43
2022-09-28T20:39:04.089Z,12.70
2022-09-28T20:41:36.661Z,11.23
2022-09-28T20:46:34.801Z,11.15
2022-09-28T20:49:02.207Z,12.35
2022-09-28T20:51:28.974Z,18.00
2022-09-28T20:53:57.201Z,21.55
2022-09-28T20:56:37.549Z,14.10
2022-09-28T20:59:07.626Z,11.63
2022-09-28T21:01:35.340Z,13.52
2022-09-28T21:04:04.664Z,10.10
2022-09-28T21:06:34.215Z,11.27
2022-09-28T21:09:01.309Z,11.02
2022-09-28T21:11:29.603Z,12.35
2022-09-28T21:13:59.368Z,22.42
2022-09-28T21:16:28.258Z,22.98
2022-09-28T21:18:55.050Z,18.92
2022-09-28T21:21:23.096Z,11.68
2022-09-28T21:23:54.055Z,11.85
2022-09-28T21:26:26.578Z,12.05
2022-09-28T21:28:58.150Z,23.70
2022-09-28T21:31:29.435Z,32.20
2022-09-28T21:33:57.376Z,31.05
2022-09-28T21:36:25.151Z,23.63
2022-09-28T21:38:52.138Z,26.08
2022-09-28T21:41:18.812Z,27.05
2022-09-28T21:43:45.797Z,31.98
2022-09-28T21:46:12.870Z,27.90
2022-09-28T21:48:39.779Z,26.77
2022-09-28T21:51:09.224Z,27.08
2022-09-28T21:53:37.876Z,26.90
2022-09-28T21:56:07.142Z,24.10
2022-09-28T21:58:35.692Z,21.08
2022-09-28T22:01:34.860Z,21.40
2022-09-28T22:04:01.676Z,20.15
2022-09-28T22:06:28.437Z,22.00
2022-09-28T22:08:55.699Z,20.63
2022-09-28T22:11:25.565Z,21.70
2022-09-28T22:13:57.551Z,13.77
2022-09-28T22:16:27.648Z,14.30
2022-09-28T22:18:54.707Z,12.70
2022-09-28T22:21:26.724Z,14.27
2022-09-28T22:23:53.917Z,12.38
2022-09-28T22:26:23.543Z,18.63
2022-09-28T22:29:08.174Z,19.45
2022-09-28T22:31:37.858Z,22.58
2022-09-28T22:34:05.322Z,25.52
2022-09-28T22:36:32.459Z,39.50
2022-09-28T22:38:59.827Z,26.05
2022-09-28T22:41:27.186Z,23.80
2022-09-28T22:43:55.139Z,17.52
2022-09-28T22:46:25.136Z,15.45
2022-09-28T22:48:57.493Z,15.20
2022-09-28T22:51:26.600Z,15.60
2022-09-28T22:53:53.411Z,11.07
2022-09-28T22:56:20.353Z,13.55
2022-09-28T22:58:47.201Z,15.60
2022-09-28T23:01:15.415Z,11.88
2022-09-28T23:03:42.639Z,11.68
2022-09-28T23:06:10.898Z,10.55
2022-09-28T23:08:38.354Z,16.60
2022-09-28T23:11:06.196Z,12.40
2022-09-28T23:13:33.262Z,11.93
2022-09-28T23:16:05.675Z,11.85
2022-09-28T23:18:35.957Z,10.30
2022-09-28T23:21:05.769Z,18.20
2022-09-28T23:23:33.335Z,10.60
2022-09-28T23:26:09.489Z,11.43
2022-09-28T23:28:36.218Z,9.93
2022-09-28T23:31:11.229Z,9.32
2022-09-28T23:33:38.080Z,8.23
2022-09-28T23:36:05.076Z,11.27
2022-09-28T23:38:31.825Z,7.50
2022-09-28T23:40:58.591Z,7.90
2022-09-28T23:43:25.412Z,7.95
2022-09-28T23:45:52.099Z,7.68
2022-09-28T23:48:18.835Z,8.68
2022-09-28T23:50:45.774Z,11.45
2022-09-28T23:53:14.290Z,11.77
2022-09-28T23:55:42.975Z,12.88
2022-09-28T23:58:10.649Z,13.93
